sensor_id;sensor_type;location;lat;lon;timestamp;P1;durP1;ratioP1;P2;durP2;ratioP2
33162;SDS011;29282;45.656;11.302;2022-11-24T00:01:51;7.03;;;4.80;;
33162;SDS011;29282;45.656;11.302;2022-11-24T00:04:17;6.53;;;4.78;;
33162;SDS011;29282;45.656;11.302;2022-11-24T00:06:42;8.77;;;4.65;;
33162;SDS011;29282;45.656;11.302;2022-11-24T00:09:08;8.93;;;4.57;;
33162;SDS011;29282;45.656;11.302;2022-11-24T00:11:35;6.00;;;4.53;;
33162;SDS011;29282;45.656;11.302;2022-11-24T00:14:02;10.75;;;4.47;;
33162;SDS011;29282;45.656;11.302;2022-11-24T00:16:30;8.40;;;4.97;;
33162;SDS011;29282;45.656;11.302;2022-11-24T00:18:58;6.28;;;4.07;;
33162;SDS011;29282;45.656;11.302;2022-11-24T00:21:26;6.40;;;4.22;;
33162;SDS011;29282;45.656;11.302;2022-11-24T00:23:53;8.85;;;4.68;;
33162;SDS011;29282;45.656;11.302;2022-11-24T00:26:29;6.10;;;4.47;;
33162;SDS011;29282;45.656;11.302;2022-11-24T00:28:59;7.65;;;4.63;;
33162;SDS011;29282;45.656;11.302;2022-11-24T00:31:30;7.07;;;4.88;;
33162;SDS011;29282;45.656;11.302;2022-11-24T00:33:58;6.18;;;4.57;;
33162;SDS011;29282;45.656;11.302;2022-11-24T00:36:26;5.78;;;4.22;;
33162;SDS011;29282;45.656;11.302;2022-11-24T00:38:54;9.18;;;4.47;;
33162;SDS011;29282;45.656;11.302;2022-11-24T00:41:21;6.07;;;4.63;;
33162;SDS011;29282;45.656;11.302;2022-11-24T00:43:47;5.55;;;4.47;;
33162;SDS011;29282;45.656;11.302;2022-11-24T00:46:13;5.82;;;4.38;;
33162;SDS011;29282;45.656;11.302;2022-11-24T00:48:38;6.43;;;4.28;;
33162;SDS011;29282;45.656;11.302;2022-11-24T00:51:06;6.50;;;4.47;;
33162;SDS011;29282;45.656;11.302;2022-11-24T00:53:33;5.57;;;4.13;;
33162;SDS011;29282;45.656;11.302;2022-11-24T00:55:59;7.88;;;4.35;;
33162;SDS011;29282;45.656;11.302;2022-11-24T00:58:26;5.78;;;4.10;;
33162;SDS011;29282;45.656;11.302;2022-11-24T01:00:51;6.15;;;4.60;;
33162;SDS011;29282;45.656;11.302;2022-11-24T01:03:18;7.25;;;4.38;;
33162;SDS011;29282;45.656;11.302;2022-11-24T01:05:45;5.55;;;3.88;;
33162;SDS011;29282;45.656;11.302;2022-11-24T01:08:10;7.57;;;4.18;;
33162;SDS011;29282;45.656;11.302;2022-11-24T01:10:36;7.80;;;4.63;;
33162;SDS011;29282;45.656;11.302;2022-11-24T01:13:02;6.45;;;4.18;;
33162;SDS011;29282;45.656;11.302;2022-11-24T01:15:28;5.60;;;4.35;;
33162;SDS011;29282;45.656;11.302;2022-11-24T01:17:56;5.63;;;3.88;;
33162;SDS011;29282;45.656;11.302;2022-11-24T01:20:22;5.97;;;4.05;;
33162;SDS011;29282;45.656;11.302;2022-11-24T01:22:48;6.10;;;3.92;;
33162;SDS011;29282;45.656;11.302;2022-11-24T01:25:14;5.18;;;4.07;;
33162;SDS011;29282;45.656;11.302;2022-11-24T01:27:40;6.25;;;3.95;;
33162;SDS011;29282;45.656;11.302;2022-11-24T01:30:06;7.13;;;4.10;;
33162;SDS011;29282;45.656;11.302;2022-11-24T01:32:32;6.45;;;4.47;;
33162;SDS011;29282;45.656;11.302;2022-11-24T01:35:00;6.32;;;4.00;;
33162;SDS011;29282;45.656;11.302;2022-11-24T01:37:26;5.28;;;3.47;;
33162;SDS011;29282;45.656;11.302;2022-11-24T01:39:51;4.82;;;3.80;;
33162;SDS011;29282;45.656;11.302;2022-11-24T01:42:17;5.50;;;3.75;;
33162;SDS011;29282;45.656;11.302;2022-11-24T01:44:42;6.32;;;4.30;;
33162;SDS011;29282;45.656;11.302;2022-11-24T01:49:46;6.05;;;3.95;;
33162;SDS011;29282;45.656;11.302;2022-11-24T01:52:37;5.47;;;3.70;;
33162;SDS011;29282;45.656;11.302;2022-11-24T01:55:06;4.80;;;3.55;;
33162;SDS011;29282;45.656;11.302;2022-11-24T01:57:36;4.43;;;3.58;;
33162;SDS011;29282;45.656;11.302;2022-11-24T02:00:14;6.43;;;3.70;;
33162;SDS011;29282;45.656;11.302;2022-11-24T02:02:41;4.88;;;3.60;;
33162;SDS011;29282;45.656;11.302;2022-11-24T02:05:18;4.22;;;3.50;;
33162;SDS011;29282;45.656;11.302;2022-11-24T02:07:48;4.90;;;3.88;;
33162;SDS011;29282;45.656;11.302;2022-11-24T02:10:16;4.32;;;3.35;;
33162;SDS011;29282;45.656;11.302;2022-11-24T02:12:45;4.90;;;3.80;;
33162;SDS011;29282;45.656;11.302;2022-11-24T02:15:13;5.72;;;3.60;;
33162;SDS011;29282;45.656;11.302;2022-11-24T02:17:40;5.60;;;3.92;;
33162;SDS011;29282;45.656;11.302;2022-11-24T02:20:07;4.57;;;3.63;;
33162;SDS011;29282;45.656;11.302;2022-11-24T02:27:58;5.20;;;3.50;;
33162;SDS011;29282;45.656;11.302;2022-11-24T02:30:26;4.70;;;3.50;;
33162;SDS011;29282;45.656;11.302;2022-11-24T02:32:52;4.35;;;3.28;;
33162;SDS011;29282;45.656;11.302;2022-11-24T02:35:18;4.20;;;3.53;;
33162;SDS011;29282;45.656;11.302;2022-11-24T02:37:44;5.25;;;3.50;;
33162;SDS011;29282;45.656;11.302;2022-11-24T02:40:10;6.03;;;3.60;;
33162;SDS011;29282;45.656;11.302;2022-11-24T02:42:39;5.63;;;3.08;;
33162;SDS011;29282;45.656;11.302;2022-11-24T02:45:08;5.22;;;3.63;;
33162;SDS011;29282;45.656;11.302;2022-11-24T02:47:35;6.05;;;3.70;;
33162;SDS011;29282;45.656;11.302;2022-11-24T02:50:01;5.97;;;3.75;;
33162;SDS011;29282;45.656;11.302;2022-11-24T02:52:26;5.30;;;2.90;;
33162;SDS011;29282;45.656;11.302;2022-11-24T02:54:52;4.03;;;3.33;;
33162;SDS011;29282;45.656;11.302;2022-11-24T02:57:17;5.47;;;3.38;;
33162;SDS011;29282;45.656;11.302;2022-11-24T02:59:43;4.13;;;3.20;;
33162;SDS011;29282;45.656;11.302;2022-11-24T03:02:08;4.72;;;3.53;;
33162;SDS011;29282;45.656;11.302;2022-11-24T03:04:34;5.10;;;3.17;;
33162;SDS011;29282;45.656;11.302;2022-11-24T03:07:00;3.88;;;3.10;;
33162;SDS011;29282;45.656;11.302;2022-11-24T03:09:25;6.13;;;3.50;;
33162;SDS011;29282;45.656;11.302;2022-11-24T03:11:51;4.20;;;3.15;;
33162;SDS011;29282;45.656;11.302;2022-11-24T03:14:16;4.72;;;3.13;;
33162;SDS011;29282;45.656;11.302;2022-11-24T03:16:42;3.63;;;3.03;;
33162;SDS011;29282;45.656;11.302;2022-11-24T03:19:07;4.38;;;3.00;;
33162;SDS011;29282;45.656;11.302;2022-11-24T03:21:34;4.93;;;3.13;;
33162;SDS011;29282;45.656;11.302;2022-11-24T03:24:00;3.55;;;2.97;;
33162;SDS011;29282;45.656;11.302;2022-11-24T03:26:26;4.65;;;3.17;;
33162;SDS011;29282;45.656;11.302;2022-11-24T03:28:53;4.30;;;3.10;;
33162;SDS011;29282;45.656;11.302;2022-11-24T03:31:20;4.10;;;2.78;;
33162;SDS011;29282;45.656;11.302;2022-11-24T03:33:46;3.63;;;3.00;;
33162;SDS011;29282;45.656;11.302;2022-11-24T03:36:11;4.93;;;3.20;;
33162;SDS011;29282;45.656;11.302;2022-11-24T03:38:37;3.33;;;3.03;;
33162;SDS011;29282;45.656;11.302;2022-11-24T03:41:02;4.07;;;3.17;;
33162;SDS011;29282;45.656;11.302;2022-11-24T03:43:28;4.72;;;2.70;;
33162;SDS011;29282;45.656;11.302;2022-11-24T03:45:53;3.45;;;2.97;;
33162;SDS011;29282;45.656;11.302;2022-11-24T03:48:19;4.30;;;3.20;;
33162;SDS011;29282;45.656;11.302;2022-11-24T03:50:54;3.45;;;2.78;;
33162;SDS011;29282;45.656;11.302;2022-11-24T03:53:22;5.28;;;3.10;;
33162;SDS011;29282;45.656;11.302;2022-11-24T03:55:49;4.00;;;2.95;;
33162;SDS011;29282;45.656;11.302;2022-11-24T03:58:15;4.18;;;3.10;;
33162;SDS011;29282;45.656;11.302;2022-11-24T04:00:40;4.05;;;2.83;;
33162;SDS011;29282;45.656;11.302;2022-11-24T04:03:06;4.00;;;3.38;;
33162;SDS011;29282;45.656;11.302;2022-11-24T04:05:31;3.83;;;2.90;;
33162;SDS011;29282;45.656;11.302;2022-11-24T04:07:59;4.07;;;2.80;;
33162;SDS011;29282;45.656;11.302;2022-11-24T04:10:27;2.88;;;2.53;;
33162;SDS011;29282;45.656;11.302;2022-11-24T04:12:54;3.47;;;2.55;;
33162;SDS011;29282;45.656;11.302;2022-11-24T04:15:20;3.40;;;3.00;;
33162;SDS011;29282;45.656;11.302;2022-11-24T04:17:47;3.03;;;2.45;;
33162;SDS011;29282;45.656;11.302;2022-11-24T04:20:14;3.50;;;2.70;;
33162;SDS011;29282;45.656;11.302;2022-11-24T04:22:41;3.03;;;2.50;;
33162;SDS011;29282;45.656;11.302;2022-11-24T04:25:07;4.10;;;2.88;;
33162;SDS011;29282;45.656;11.302;2022-11-24T04:27:34;3.70;;;2.45;;
33162;SDS011;29282;45.656;11.302;2022-11-24T04:30:02;3.80;;;2.90;;
33162;SDS011;29282;45.656;11.302;2022-11-24T04:32:29;2.90;;;2.60;;
33162;SDS011;29282;45.656;11.302;2022-11-24T04:34:54;3.30;;;2.55;;
33162;SDS011;29282;45.656;11.302;2022-11-24T04:37:26;3.75;;;2.60;;
33162;SDS011;29282;45.656;11.302;2022-11-24T04:39:52;3.63;;;2.88;;
33162;SDS011;29282;45.656;11.302;2022-11-24T04:42:19;4.40;;;2.85;;
33162;SDS011;29282;45.656;11.302;2022-11-24T04:44:45;3.00;;;2.53;;
33162;SDS011;29282;45.656;11.302;2022-11-24T04:47:18;2.60;;;2.40;;
33162;SDS011;29282;45.656;11.302;2022-11-24T04:49:45;2.72;;;2.45;;
33162;SDS011;29282;45.656;11.302;2022-11-24T04:52:15;3.70;;;2.65;;
33162;SDS011;29282;45.656;11.302;2022-11-24T04:54:41;2.60;;;2.25;;
33162;SDS011;29282;45.656;11.302;2022-11-24T04:57:10;3.78;;;2.83;;
33162;SDS011;29282;45.656;11.302;2022-11-24T04:59:50;4.30;;;2.60;;
33162;SDS011;29282;45.656;11.302;2022-11-24T05:02:16;3.95;;;2.60;;
33162;SDS011;29282;45.656;11.302;2022-11-24T05:04:43;3.05;;;2.40;;
33162;SDS011;29282;45.656;11.302;2022-11-24T05:07:10;3.00;;;2.38;;
33162;SDS011;29282;45.656;11.302;2022-11-24T05:09:36;3.22;;;2.25;;
33162;SDS011;29282;45.656;11.302;2022-11-24T05:12:21;2.60;;;2.40;;
33162;SDS011;29282;45.656;11.302;2022-11-24T05:14:49;3.60;;;2.47;;
33162;SDS011;29282;45.656;11.302;2022-11-24T05:17:14;3.63;;;2.45;;
33162;SDS011;29282;45.656;11.302;2022-11-24T05:19:40;4.10;;;2.40;;
33162;SDS011;29282;45.656;11.302;2022-11-24T05:22:05;2.83;;;2.30;;
33162;SDS011;29282;45.656;11.302;2022-11-24T05:24:31;2.58;;;2.13;;
33162;SDS011;29282;45.656;11.302;2022-11-24T05:26:57;3.88;;;2.38;;
33162;SDS011;29282;45.656;11.302;2022-11-24T05:29:22;2.95;;;2.38;;
33162;SDS011;29282;45.656;11.302;2022-11-24T05:31:47;5.20;;;2.40;;
33162;SDS011;29282;45.656;11.302;2022-11-24T05:34:13;3.20;;;2.50;;
33162;SDS011;29282;45.656;11.302;2022-11-24T05:36:39;5.38;;;2.50;;
33162;SDS011;29282;45.656;11.302;2022-11-24T05:39:17;5.78;;;2.90;;
33162;SDS011;29282;45.656;11.302;2022-11-24T05:41:42;12.48;;;3.95;;
33162;SDS011;29282;45.656;11.302;2022-11-24T05:44:08;9.45;;;3.83;;
33162;SDS011;29282;45.656;11.302;2022-11-24T05:46:33;10.45;;;3.33;;
33162;SDS011;29282;45.656;11.302;2022-11-24T05:48:59;7.90;;;3.40;;
33162;SDS011;29282;45.656;11.302;2022-11-24T05:51:24;6.30;;;3.10;;
33162;SDS011;29282;45.656;11.302;2022-11-24T05:53:50;9.93;;;3.03;;
33162;SDS011;29282;45.656;11.302;2022-11-24T05:56:15;5.40;;;2.95;;
33162;SDS011;29282;45.656;11.302;2022-11-24T05:58:41;9.38;;;3.58;;
33162;SDS011;29282;45.656;11.302;2022-11-24T06:01:07;6.38;;;2.60;;
33162;SDS011;29282;45.656;11.302;2022-11-24T06:03:33;8.10;;;3.33;;
33162;SDS011;29282;45.656;11.302;2022-11-24T06:05:58;5.80;;;2.72;;
33162;SDS011;29282;45.656;11.302;2022-11-24T06:08:24;7.40;;;3.03;;
33162;SDS011;29282;45.656;11.302;2022-11-24T06:10:49;8.63;;;2.97;;
33162;SDS011;29282;45.656;11.302;2022-11-24T06:13:15;9.05;;;3.38;;
33162;SDS011;29282;45.656;11.302;2022-11-24T06:15:40;16.02;;;3.63;;
33162;SDS011;29282;45.656;11.302;2022-11-24T06:18:06;9.02;;;3.70;;
33162;SDS011;29282;45.656;11.302;2022-11-24T06:20:31;6.53;;;2.83;;
33162;SDS011;29282;45.656;11.302;2022-11-24T06:22:57;10.75;;;3.25;;
33162;SDS011;29282;45.656;11.302;2022-11-24T06:25:24;9.18;;;3.17;;
33162;SDS011;29282;45.656;11.302;2022-11-24T06:27:49;5.97;;;2.80;;
33162;SDS011;29282;45.656;11.302;2022-11-24T06:30:15;8.23;;;3.35;;
33162;SDS011;29282;45.656;11.302;2022-11-24T06:32:40;6.32;;;2.72;;
33162;SDS011;29282;45.656;11.302;2022-11-24T06:35:13;6.35;;;3.03;;
33162;SDS011;29282;45.656;11.302;2022-11-24T06:37:38;5.03;;;2.83;;
33162;SDS011;29282;45.656;11.302;2022-11-24T06:40:05;8.27;;;3.10;;
33162;SDS011;29282;45.656;11.302;2022-11-24T06:42:33;6.25;;;3.20;;
33162;SDS011;29282;45.656;11.302;2022-11-24T06:44:59;9.88;;;3.72;;
33162;SDS011;29282;45.656;11.302;2022-11-24T06:47:24;9.65;;;3.28;;
33162;SDS011;29282;45.656;11.302;2022-11-24T06:49:50;6.63;;;3.83;;
33162;SDS011;29282;45.656;11.302;2022-11-24T06:52:15;8.57;;;3.55;;
33162;SDS011;29282;45.656;11.302;2022-11-24T06:54:41;8.75;;;3.55;;
33162;SDS011;29282;45.656;11.302;2022-11-24T06:57:07;11.05;;;4.03;;
33162;SDS011;29282;45.656;11.302;2022-11-24T06:59:33;5.80;;;3.40;;
33162;SDS011;29282;45.656;11.302;2022-11-24T07:01:58;13.43;;;4.07;;
33162;SDS011;29282;45.656;11.302;2022-11-24T07:04:24;7.95;;;3.63;;
33162;SDS011;29282;45.656;11.302;2022-11-24T07:06:49;7.70;;;3.28;;
33162;SDS011;29282;45.656;11.302;2022-11-24T07:09:15;7.43;;;3.40;;
33162;SDS011;29282;45.656;11.302;2022-11-24T07:11:40;9.13;;;3.60;;
33162;SDS011;29282;45.656;11.302;2022-11-24T07:14:07;11.57;;;4.40;;
33162;SDS011;29282;45.656;11.302;2022-11-24T07:16:33;8.30;;;3.42;;
33162;SDS011;29282;45.656;11.302;2022-11-24T07:18:59;10.55;;;3.58;;
33162;SDS011;29282;45.656;11.302;2022-11-24T07:21:25;7.47;;;3.42;;
33162;SDS011;29282;45.656;11.302;2022-11-24T07:23:52;10.73;;;3.70;;
33162;SDS011;29282;45.656;11.302;2022-11-24T07:26:19;14.55;;;4.57;;
33162;SDS011;29282;45.656;11.302;2022-11-24T07:28:45;7.72;;;3.58;;
33162;SDS011;29282;45.656;11.302;2022-11-24T07:31:13;10.73;;;4.15;;
33162;SDS011;29282;45.656;11.302;2022-11-24T07:33:40;11.50;;;3.88;;
33162;SDS011;29282;45.656;11.302;2022-11-24T07:36:06;8.38;;;4.03;;
33162;SDS011;29282;45.656;11.302;2022-11-24T07:38:33;11.35;;;3.75;;
33162;SDS011;29282;45.656;11.302;2022-11-24T07:41:03;8.60;;;4.28;;
33162;SDS011;29282;45.656;11.302;2022-11-24T07:43:31;9.10;;;4.30;;
33162;SDS011;29282;45.656;11.302;2022-11-24T07:45:57;10.23;;;4.28;;
33162;SDS011;29282;45.656;11.302;2022-11-24T07:48:23;8.18;;;4.53;;
33162;SDS011;29282;45.656;11.302;2022-11-24T07:50:49;13.15;;;4.25;;
33162;SDS011;29282;45.656;11.302;2022-11-24T07:53:14;11.18;;;4.32;;
33162;SDS011;29282;45.656;11.302;2022-11-24T07:55:40;5.90;;;4.00;;
33162;SDS011;29282;45.656;11.302;2022-11-24T07:58:05;9.60;;;4.45;;
33162;SDS011;29282;45.656;11.302;2022-11-24T08:00:31;11.48;;;5.05;;
33162;SDS011;29282;45.656;11.302;2022-11-24T08:02:56;9.50;;;4.15;;
33162;SDS011;29282;45.656;11.302;2022-11-24T08:05:22;12.25;;;4.82;;
33162;SDS011;29282;45.656;11.302;2022-11-24T08:07:47;7.20;;;4.15;;
33162;SDS011;29282;45.656;11.302;2022-11-24T08:10:13;9.07;;;4.15;;
33162;SDS011;29282;45.656;11.302;2022-11-24T08:12:38;13.85;;;4.65;;
33162;SDS011;29282;45.656;11.302;2022-11-24T08:15:04;7.65;;;3.95;;
33162;SDS011;29282;45.656;11.302;2022-11-24T08:17:31;9.63;;;4.35;;
33162;SDS011;29282;45.656;11.302;2022-11-24T08:19:57;8.90;;;3.92;;
33162;SDS011;29282;45.656;11.302;2022-11-24T08:22:22;8.23;;;3.67;;
33162;SDS011;29282;45.656;11.302;2022-11-24T08:24:48;15.18;;;4.93;;
33162;SDS011;29282;45.656;11.302;2022-11-24T08:27:15;10.95;;;3.90;;
33162;SDS011;29282;45.656;11.302;2022-11-24T08:29:41;14.27;;;4.53;;
33162;SDS011;29282;45.656;11.302;2022-11-24T08:32:07;7.88;;;4.38;;
33162;SDS011;29282;45.656;11.302;2022-11-24T08:34:34;12.23;;;4.40;;
33162;SDS011;29282;45.656;11.302;2022-11-24T08:37:01;10.63;;;4.22;;
33162;SDS011;29282;45.656;11.302;2022-11-24T08:39:28;7.88;;;4.30;;
33162;SDS011;29282;45.656;11.302;2022-11-24T08:41:53;11.77;;;4.30;;
33162;SDS011;29282;45.656;11.302;2022-11-24T08:44:18;8.02;;;4.13;;
33162;SDS011;29282;45.656;11.302;2022-11-24T08:46:44;8.57;;;4.43;;
33162;SDS011;29282;45.656;11.302;2022-11-24T08:49:10;8.00;;;3.83;;
33162;SDS011;29282;45.656;11.302;2022-11-24T08:51:38;12.32;;;4.72;;
33162;SDS011;29282;45.656;11.302;2022-11-24T08:54:03;10.82;;;4.97;;
33162;SDS011;29282;45.656;11.302;2022-11-24T08:56:30;11.10;;;4.50;;
33162;SDS011;29282;45.656;11.302;2022-11-24T08:58:57;9.80;;;4.50;;
33162;SDS011;29282;45.656;11.302;2022-11-24T09:01:22;10.23;;;4.25;;
33162;SDS011;29282;45.656;11.302;2022-11-24T09:03:49;16.70;;;5.28;;
33162;SDS011;29282;45.656;11.302;2022-11-24T09:06:15;8.73;;;4.20;;
33162;SDS011;29282;45.656;11.302;2022-11-24T09:08:42;8.48;;;4.30;;
33162;SDS011;29282;45.656;11.302;2022-11-24T09:11:11;12.10;;;4.63;;
33162;SDS011;29282;45.656;11.302;2022-11-24T09:13:38;11.35;;;4.45;;
33162;SDS011;29282;45.656;11.302;2022-11-24T09:16:05;9.80;;;4.13;;
33162;SDS011;29282;45.656;11.302;2022-11-24T09:18:33;12.68;;;4.63;;
33162;SDS011;29282;45.656;11.302;2022-11-24T09:21:15;10.25;;;4.40;;
33162;SDS011;29282;45.656;11.302;2022-11-24T09:23:42;11.00;;;4.13;;
33162;SDS011;29282;45.656;11.302;2022-11-24T09:26:20;10.13;;;4.78;;
33162;SDS011;29282;45.656;11.302;2022-11-24T09:28:47;9.65;;;4.03;;
33162;SDS011;29282;45.656;11.302;2022-11-24T09:31:14;6.32;;;4.05;;
33162;SDS011;29282;45.656;11.302;2022-11-24T09:33:41;9.10;;;4.40;;
33162;SDS011;29282;45.656;11.302;2022-11-24T09:36:07;8.45;;;4.38;;
33162;SDS011;29282;45.656;11.302;2022-11-24T09:38:32;9.27;;;4.22;;
33162;SDS011;29282;45.656;11.302;2022-11-24T09:46:55;8.95;;;4.35;;
33162;SDS011;29282;45.656;11.302;2022-11-24T09:49:28;9.80;;;4.05;;
33162;SDS011;29282;45.656;11.302;2022-11-24T09:52:01;8.77;;;4.75;;
33162;SDS011;29282;45.656;11.302;2022-11-24T09:54:32;9.85;;;4.43;;
33162;SDS011;29282;45.656;11.302;2022-11-24T09:57:00;8.43;;;4.47;;
33162;SDS011;29282;45.656;11.302;2022-11-24T09:59:30;11.25;;;4.55;;
33162;SDS011;29282;45.656;11.302;2022-11-24T10:01:55;10.35;;;4.70;;
33162;SDS011;29282;45.656;11.302;2022-11-24T10:04:24;8.90;;;3.90;;
33162;SDS011;29282;45.656;11.302;2022-11-24T10:09:55;7.32;;;3.95;;
33162;SDS011;29282;45.656;11.302;2022-11-24T10:20:18;6.82;;;3.95;;
33162;SDS011;29282;45.656;11.302;2022-11-24T10:28:20;7.65;;;3.95;;
33162;SDS011;29282;45.656;11.302;2022-11-24T10:30:45;7.57;;;3.83;;
33162;SDS011;29282;45.656;11.302;2022-11-24T10:38:25;7.70;;;3.90;;
33162;SDS011;29282;45.656;11.302;2022-11-24T10:41:17;6.53;;;3.92;;
33162;SDS011;29282;45.656;11.302;2022-11-24T10:43:47;7.65;;;3.67;;
33162;SDS011;29282;45.656;11.302;2022-11-24T10:46:14;7.80;;;3.88;;
33162;SDS011;29282;45.656;11.302;2022-11-24T10:48:48;7.30;;;4.30;;
33162;SDS011;29282;45.656;11.302;2022-11-24T10:54:17;6.90;;;3.80;;
33162;SDS011;29282;45.656;11.302;2022-11-24T10:56:43;8.52;;;4.00;;
33162;SDS011;29282;45.656;11.302;2022-11-24T10:59:21;8.55;;;4.00;;
33162;SDS011;29282;45.656;11.302;2022-11-24T11:01:46;7.45;;;3.97;;
33162;SDS011;29282;45.656;11.302;2022-11-24T11:04:25;5.88;;;3.45;;
33162;SDS011;29282;45.656;11.302;2022-11-24T11:06:51;10.57;;;3.97;;
33162;SDS011;29282;45.656;11.302;2022-11-24T11:09:18;8.13;;;4.03;;
33162;SDS011;29282;45.656;11.302;2022-11-24T11:11:45;6.68;;;3.70;;
33162;SDS011;29282;45.656;11.302;2022-11-24T11:14:27;6.32;;;3.50;;
33162;SDS011;29282;45.656;11.302;2022-11-24T11:16:55;6.32;;;4.13;;
33162;SDS011;29282;45.656;11.302;2022-11-24T11:22:00;7.43;;;3.85;;
33162;SDS011;29282;45.656;11.302;2022-11-24T11:24:28;8.65;;;3.60;;
33162;SDS011;29282;45.656;11.302;2022-11-24T11:27:01;7.03;;;3.88;;
33162;SDS011;29282;45.656;11.302;2022-11-24T11:29:40;8.13;;;3.75;;
33162;SDS011;29282;45.656;11.302;2022-11-24T11:32:19;5.50;;;3.58;;
33162;SDS011;29282;45.656;11.302;2022-11-24T11:34:52;6.25;;;3.63;;
33162;SDS011;29282;45.656;11.302;2022-11-24T11:37:21;5.13;;;3.67;;
33162;SDS011;29282;45.656;11.302;2022-11-24T11:39:50;6.68;;;3.33;;
33162;SDS011;29282;45.656;11.302;2022-11-24T11:42:22;6.03;;;3.75;;
33162;SDS011;29282;45.656;11.302;2022-11-24T11:45:00;9.60;;;4.00;;
33162;SDS011;29282;45.656;11.302;2022-11-24T11:47:35;7.60;;;3.88;;
33162;SDS011;29282;45.656;11.302;2022-11-24T11:50:12;6.65;;;3.67;;
33162;SDS011;29282;45.656;11.302;2022-11-24T11:52:42;7.18;;;3.22;;
33162;SDS011;29282;45.656;11.302;2022-11-24T11:55:25;4.07;;;3.17;;
33162;SDS011;29282;45.656;11.302;2022-11-24T12:00:53;6.80;;;3.47;;
33162;SDS011;29282;45.656;11.302;2022-11-24T12:25:39;5.35;;;3.53;;
33162;SDS011;29282;45.656;11.302;2022-11-24T12:39:47;8.02;;;3.30;;
33162;SDS011;29282;45.656;11.302;2022-11-24T12:44:51;6.43;;;3.25;;
33162;SDS011;29282;45.656;11.302;2022-11-24T12:47:32;5.03;;;3.50;;
33162;SDS011;29282;45.656;11.302;2022-11-24T12:50:12;6.45;;;3.97;;
33162;SDS011;29282;45.656;11.302;2022-11-24T12:52:49;7.47;;;3.40;;
33162;SDS011;29282;45.656;11.302;2022-11-24T12:55:36;7.40;;;3.13;;
33162;SDS011;29282;45.656;11.302;2022-11-24T12:58:13;5.88;;;3.30;;
33162;SDS011;29282;45.656;11.302;2022-11-24T13:00:45;8.50;;;3.65;;
33162;SDS011;29282;45.656;11.302;2022-11-24T13:06:06;6.72;;;3.15;;
33162;SDS011;29282;45.656;11.302;2022-11-24T13:08:52;6.85;;;3.40;;
33162;SDS011;29282;45.656;11.302;2022-11-24T13:16:46;5.03;;;3.35;;
33162;SDS011;29282;45.656;11.302;2022-11-24T13:19:21;9.43;;;3.75;;
33162;SDS011;29282;45.656;11.302;2022-11-24T13:26:51;5.28;;;3.08;;
33162;SDS011;29282;45.656;11.302;2022-11-24T13:29:36;7.10;;;3.40;;
33162;SDS011;29282;45.656;11.302;2022-11-24T13:37:03;5.32;;;3.40;;
33162;SDS011;29282;45.656;11.302;2022-11-24T13:39:49;4.20;;;3.15;;
33162;SDS011;29282;45.656;11.302;2022-11-24T13:42:17;4.63;;;3.10;;
33162;SDS011;29282;45.656;11.302;2022-11-24T13:44:47;6.10;;;3.50;;
33162;SDS011;29282;45.656;11.302;2022-11-24T13:49:57;5.03;;;3.15;;
33162;SDS011;29282;45.656;11.302;2022-11-24T13:52:42;6.85;;;3.25;;
33162;SDS011;29282;45.656;11.302;2022-11-24T13:55:27;9.25;;;3.58;;
33162;SDS011;29282;45.656;11.302;2022-11-24T13:58:20;12.63;;;3.88;;
33162;SDS011;29282;45.656;11.302;2022-11-24T14:01:01;10.35;;;3.88;;
33162;SDS011;29282;45.656;11.302;2022-11-24T14:03:31;7.32;;;3.13;;
33162;SDS011;29282;45.656;11.302;2022-11-24T14:06:00;6.68;;;3.60;;
33162;SDS011;29282;45.656;11.302;2022-11-24T14:08:28;6.00;;;3.42;;
33162;SDS011;29282;45.656;11.302;2022-11-24T14:11:00;6.30;;;3.22;;
33162;SDS011;29282;45.656;11.302;2022-11-24T14:13:28;6.70;;;3.75;;
33162;SDS011;29282;45.656;11.302;2022-11-24T14:16:04;8.95;;;3.42;;
33162;SDS011;29282;45.656;11.302;2022-11-24T14:18:55;12.00;;;3.47;;
33162;SDS011;29282;45.656;11.302;2022-11-24T14:21:34;8.00;;;3.67;;
33162;SDS011;29282;45.656;11.302;2022-11-24T14:24:16;7.57;;;3.88;;
33162;SDS011;29282;45.656;11.302;2022-11-24T14:26:57;10.43;;;3.75;;
33162;SDS011;29282;45.656;11.302;2022-11-24T14:29:23;9.90;;;3.20;;
33162;SDS011;29282;45.656;11.302;2022-11-24T14:31:51;8.63;;;3.67;;
33162;SDS011;29282;45.656;11.302;2022-11-24T14:34:19;7.57;;;3.38;;
33162;SDS011;29282;45.656;11.302;2022-11-24T14:36:50;20.63;;;4.03;;
33162;SDS011;29282;45.656;11.302;2022-11-24T14:39:18;10.43;;;3.85;;
33162;SDS011;29282;45.656;11.302;2022-11-24T14:44:33;11.02;;;4.10;;
33162;SDS011;29282;45.656;11.302;2022-11-24T14:47:28;7.10;;;3.55;;
33162;SDS011;29282;45.656;11.302;2022-11-24T14:49:54;7.75;;;3.67;;
33162;SDS011;29282;45.656;11.302;2022-11-24T14:52:22;6.72;;;3.47;;
33162;SDS011;29282;45.656;11.302;2022-11-24T14:54:50;7.82;;;3.80;;
33162;SDS011;29282;45.656;11.302;2022-11-24T14:57:29;12.95;;;3.95;;
33162;SDS011;29282;45.656;11.302;2022-11-24T15:02:41;5.88;;;3.70;;
33162;SDS011;29282;45.656;11.302;2022-11-24T15:05:16;7.90;;;3.45;;
33162;SDS011;29282;45.656;11.302;2022-11-24T15:07:46;8.82;;;3.63;;
33162;SDS011;29282;45.656;11.302;2022-11-24T15:10:18;6.95;;;3.63;;
33162;SDS011;29282;45.656;11.302;2022-11-24T15:12:57;9.80;;;3.37;;
33162;SDS011;29282;45.656;11.302;2022-11-24T15:15:37;5.95;;;3.40;;
33162;SDS011;29282;45.656;11.302;2022-11-24T15:18:03;7.18;;;3.30;;
33162;SDS011;29282;45.656;11.302;2022-11-24T15:20:34;8.30;;;3.42;;
33162;SDS011;29282;45.656;11.302;2022-11-24T15:23:27;10.50;;;4.13;;
33162;SDS011;29282;45.656;11.302;2022-11-24T15:25:54;5.38;;;3.55;;
33162;SDS011;29282;45.656;11.302;2022-11-24T15:28:26;6.32;;;3.65;;
33162;SDS011;29282;45.656;11.302;2022-11-24T15:30:52;6.65;;;3.38;;
33162;SDS011;29282;45.656;11.302;2022-11-24T15:33:20;11.95;;;3.53;;
33162;SDS011;29282;45.656;11.302;2022-11-24T15:35:47;5.65;;;3.63;;
33162;SDS011;29282;45.656;11.302;2022-11-24T15:38:13;8.82;;;3.55;;
33162;SDS011;29282;45.656;11.302;2022-11-24T15:40:41;9.68;;;3.47;;
33162;SDS011;29282;45.656;11.302;2022-11-24T15:43:23;10.13;;;3.75;;
33162;SDS011;29282;45.656;11.302;2022-11-24T15:45:53;6.47;;;4.00;;
33162;SDS011;29282;45.656;11.302;2022-11-24T15:48:19;8.80;;;3.90;;
33162;SDS011;29282;45.656;11.302;2022-11-24T15:50:45;5.03;;;3.30;;
33162;SDS011;29282;45.656;11.302;2022-11-24T15:53:16;6.82;;;3.65;;
33162;SDS011;29282;45.656;11.302;2022-11-24T15:55:49;7.75;;;4.47;;
33162;SDS011;29282;45.656;11.302;2022-11-24T15:58:16;5.95;;;3.88;;
33162;SDS011;29282;45.656;11.302;2022-11-24T16:00:42;9.57;;;3.80;;
33162;SDS011;29282;45.656;11.302;2022-11-24T16:03:08;6.47;;;3.88;;
33162;SDS011;29282;45.656;11.302;2022-11-24T16:05:35;6.88;;;3.55;;
33162;SDS011;29282;45.656;11.302;2022-11-24T16:08:03;6.50;;;4.20;;
33162;SDS011;29282;45.656;11.302;2022-11-24T16:10:31;5.97;;;3.95;;
33162;SDS011;29282;45.656;11.302;2022-11-24T16:12:59;11.02;;;3.83;;
33162;SDS011;29282;45.656;11.302;2022-11-24T16:15:25;9.30;;;3.72;;
33162;SDS011;29282;45.656;11.302;2022-11-24T16:17:51;5.65;;;3.83;;
33162;SDS011;29282;45.656;11.302;2022-11-24T16:20:16;12.82;;;4.00;;
33162;SDS011;29282;45.656;11.302;2022-11-24T16:22:42;5.93;;;3.95;;
33162;SDS011;29282;45.656;11.302;2022-11-24T16:25:08;18.05;;;3.97;;
33162;SDS011;29282;45.656;11.302;2022-11-24T16:27:34;11.48;;;4.30;;
33162;SDS011;29282;45.656;11.302;2022-11-24T16:30:00;8.43;;;4.47;;